sensor_id;sensor_type;location;lat;lon;timestamp;temperature;humidity
16412;DHT22;8315;52.104;6.304;2022-08-19T00:02:24;19.50;98.40
16412;DHT22;8315;52.104;6.304;2022-08-19T00:04:57;19.50;98.40
16412;DHT22;8315;52.104;6.304;2022-08-19T00:07:30;19.50;98.40
16412;DHT22;8315;52.104;6.304;2022-08-19T00:10:12;19.50;98.40
16412;DHT22;8315;52.104;6.304;2022-08-19T00:12:45;19.50;98.40
16412;DHT22;8315;52.104;6.304;2022-08-19T00:15:24;19.40;98.40
16412;DHT22;8315;52.104;6.304;2022-08-19T00:17:56;19.40;98.40
16412;DHT22;8315;52.104;6.304;2022-08-19T00:20:28;19.40;98.40
16412;DHT22;8315;52.104;6.304;2022-08-19T00:22:57;19.40;98.40
16412;DHT22;8315;52.104;6.304;2022-08-19T00:25:38;19.40;98.40
16412;DHT22;8315;52.104;6.304;2022-08-19T00:28:15;19.40;98.40
16412;DHT22;8315;52.104;6.304;2022-08-19T00:30:48;19.30;98.40
16412;DHT22;8315;52.104;6.304;2022-08-19T00:33:31;19.30;98.40
16412;DHT22;8315;52.104;6.304;2022-08-19T00:36:16;19.30;98.40
16412;DHT22;8315;52.104;6.304;2022-08-19T00:38:55;19.30;98.40
16412;DHT22;8315;52.104;6.304;2022-08-19T00:41:27;19.40;98.40
16412;DHT22;8315;52.104;6.304;2022-08-19T00:44:03;19.40;98.40
16412;DHT22;8315;52.104;6.304;2022-08-19T00:46:34;19.30;98.40
16412;DHT22;8315;52.104;6.304;2022-08-19T00:49:13;19.30;98.40
16412;DHT22;8315;52.104;6.304;2022-08-19T00:51:51;19.30;98.40
16412;DHT22;8315;52.104;6.304;2022-08-19T00:54:27;19.30;98.40
16412;DHT22;8315;52.104;6.304;2022-08-19T00:56:59;19.30;98.40
16412;DHT22;8315;52.104;6.304;2022-08-19T00:59:41;19.20;98.40
16412;DHT22;8315;52.104;6.304;2022-08-19T01:02:29;19.30;98.40
16412;DHT22;8315;52.104;6.304;2022-08-19T01:04:59;19.20;98.40
16412;DHT22;8315;52.104;6.304;2022-08-19T01:07:38;19.10;98.40
16412;DHT22;8315;52.104;6.304;2022-08-19T01:10:19;19.00;98.40
16412;DHT22;8315;52.104;6.304;2022-08-19T01:12:51;19.10;98.40
16412;DHT22;8315;52.104;6.304;2022-08-19T01:15:33;18.90;98.40
16412;DHT22;8315;52.104;6.304;2022-08-19T01:18:07;18.90;98.40
16412;DHT22;8315;52.104;6.304;2022-08-19T01:20:52;18.80;98.40
16412;DHT22;8315;52.104;6.304;2022-08-19T01:23:24;18.90;98.40
16412;DHT22;8315;52.104;6.304;2022-08-19T01:26:11;19.00;98.40
16412;DHT22;8315;52.104;6.304;2022-08-19T01:28:44;18.90;98.40
16412;DHT22;8315;52.104;6.304;2022-08-19T01:31:15;18.90;98.40
16412;DHT22;8315;52.104;6.304;2022-08-19T01:33:56;18.90;98.40
16412;DHT22;8315;52.104;6.304;2022-08-19T01:36:27;18.90;98.40
16412;DHT22;8315;52.104;6.304;2022-08-19T01:39:06;18.90;98.40
16412;DHT22;8315;52.104;6.304;2022-08-19T01:41:41;18.80;98.40
16412;DHT22;8315;52.104;6.304;2022-08-19T01:44:19;18.80;98.40
16412;DHT22;8315;52.104;6.304;2022-08-19T01:46:52;18.80;98.40
16412;DHT22;8315;52.104;6.304;2022-08-19T01:49:25;18.70;98.40
16412;DHT22;8315;52.104;6.304;2022-08-19T01:51:58;18.60;98.40
16412;DHT22;8315;52.104;6.304;2022-08-19T01:54:30;18.60;98.40
16412;DHT22;8315;52.104;6.304;2022-08-19T01:57:03;18.60;98.40
16412;DHT22;8315;52.104;6.304;2022-08-19T01:59:37;18.50;98.40
16412;DHT22;8315;52.104;6.304;2022-08-19T02:02:26;18.40;98.40
16412;DHT22;8315;52.104;6.304;2022-08-19T02:05:00;18.40;98.40
16412;DHT22;8315;52.104;6.304;2022-08-19T02:07:32;18.40;98.40
16412;DHT22;8315;52.104;6.304;2022-08-19T02:10:10;18.40;98.40
16412;DHT22;8315;52.104;6.304;2022-08-19T02:12:52;18.40;98.40
16412;DHT22;8315;52.104;6.304;2022-08-19T02:15:25;18.40;98.40
16412;DHT22;8315;52.104;6.304;2022-08-19T02:18:01;18.30;98.40
16412;DHT22;8315;52.104;6.304;2022-08-19T02:20:31;18.20;98.40
16412;DHT22;8315;52.104;6.304;2022-08-19T02:23:19;18.10;98.40
16412;DHT22;8315;52.104;6.304;2022-08-19T02:26:19;18.10;98.40
16412;DHT22;8315;52.104;6.304;2022-08-19T02:28:54;18.10;98.40
16412;DHT22;8315;52.104;6.304;2022-08-19T02:31:26;18.10;98.40
16412;DHT22;8315;52.104;6.304;2022-08-19T02:33:56;18.10;98.40
16412;DHT22;8315;52.104;6.304;2022-08-19T02:36:24;18.00;98.40
16412;DHT22;8315;52.104;6.304;2022-08-19T02:38:54;18.00;98.40
16412;DHT22;8315;52.104;6.304;2022-08-19T02:41:26;18.00;98.40
16412;DHT22;8315;52.104;6.304;2022-08-19T02:44:01;17.90;98.40
16412;DHT22;8315;52.104;6.304;2022-08-19T02:46:31;17.90;98.40
16412;DHT22;8315;52.104;6.304;2022-08-19T02:49:05;17.90;98.40
16412;DHT22;8315;52.104;6.304;2022-08-19T02:51:43;17.90;98.40
16412;DHT22;8315;52.104;6.304;2022-08-19T02:54:15;17.80;98.40
16412;DHT22;8315;52.104;6.304;2022-08-19T02:56:48;17.80;98.40
16412;DHT22;8315;52.104;6.304;2022-08-19T02:59:29;17.80;98.40
16412;DHT22;8315;52.104;6.304;2022-08-19T03:02:11;17.80;98.40
16412;DHT22;8315;52.104;6.304;2022-08-19T03:04:47;17.80;98.40
16412;DHT22;8315;52.104;6.304;2022-08-19T03:07:29;17.80;98.40
16412;DHT22;8315;52.104;6.304;2022-08-19T03:10:15;17.70;98.40
16412;DHT22;8315;52.104;6.304;2022-08-19T03:12:50;17.70;98.40
16412;DHT22;8315;52.104;6.304;2022-08-19T03:15:21;17.60;98.40
16412;DHT22;8315;52.104;6.304;2022-08-19T03:17:54;17.70;98.40
16412;DHT22;8315;52.104;6.304;2022-08-19T03:20:32;17.60;98.40
16412;DHT22;8315;52.104;6.304;2022-08-19T03:23:00;17.50;98.40
16412;DHT22;8315;52.104;6.304;2022-08-19T03:25:37;17.50;98.40
16412;DHT22;8315;52.104;6.304;2022-08-19T03:28:17;17.50;98.40
16412;DHT22;8315;52.104;6.304;2022-08-19T03:30:58;17.50;98.40
16412;DHT22;8315;52.104;6.304;2022-08-19T03:33:29;17.30;98.40
16412;DHT22;8315;52.104;6.304;2022-08-19T03:36:06;17.30;98.40
16412;DHT22;8315;52.104;6.304;2022-08-19T03:38:46;17.30;98.40
16412;DHT22;8315;52.104;6.304;2022-08-19T03:41:21;17.30;98.40
16412;DHT22;8315;52.104;6.304;2022-08-19T03:43:55;17.40;98.40
16412;DHT22;8315;52.104;6.304;2022-08-19T03:46:35;17.40;98.40
16412;DHT22;8315;52.104;6.304;2022-08-19T03:49:03;17.30;98.40
16412;DHT22;8315;52.104;6.304;2022-08-19T03:51:46;17.20;98.40
16412;DHT22;8315;52.104;6.304;2022-08-19T03:54:25;17.30;98.40
16412;DHT22;8315;52.104;6.304;2022-08-19T03:56:54;17.30;98.40
16412;DHT22;8315;52.104;6.304;2022-08-19T03:59:36;17.20;98.40
16412;DHT22;8315;52.104;6.304;2022-08-19T04:02:12;17.20;98.40
16412;DHT22;8315;52.104;6.304;2022-08-19T04:04:47;17.10;98.40
16412;DHT22;8315;52.104;6.304;2022-08-19T04:07:24;17.10;98.40
16412;DHT22;8315;52.104;6.304;2022-08-19T04:09:57;17.10;98.40
16412;DHT22;8315;52.104;6.304;2022-08-19T04:12:32;17.10;98.40
16412;DHT22;8315;52.104;6.304;2022-08-19T04:15:10;17.10;98.40
16412;DHT22;8315;52.104;6.304;2022-08-19T04:17:47;17.10;98.40
16412;DHT22;8315;52.104;6.304;2022-08-19T04:20:20;17.00;98.40
16412;DHT22;8315;52.104;6.304;2022-08-19T04:22:50;17.00;98.40
16412;DHT22;8315;52.104;6.304;2022-08-19T04:25:28;17.00;98.40
16412;DHT22;8315;52.104;6.304;2022-08-19T04:28:08;17.00;98.40
16412;DHT22;8315;52.104;6.304;2022-08-19T04:30:45;17.00;98.40
16412;DHT22;8315;52.104;6.304;2022-08-19T04:33:23;17.00;98.40
16412;DHT22;8315;52.104;6.304;2022-08-19T04:35:55;17.00;98.40
16412;DHT22;8315;52.104;6.304;2022-08-19T04:38:29;17.00;98.40
16412;DHT22;8315;52.104;6.304;2022-08-19T04:41:05;16.90;98.40
16412;DHT22;8315;52.104;6.304;2022-08-19T04:43:57;16.90;98.40
16412;DHT22;8315;52.104;6.304;2022-08-19T04:46:34;16.90;98.40
16412;DHT22;8315;52.104;6.304;2022-08-19T04:49:21;16.80;98.40
16412;DHT22;8315;52.104;6.304;2022-08-19T04:51:58;16.80;98.40
16412;DHT22;8315;52.104;6.304;2022-08-19T04:54:30;16.70;98.40
16412;DHT22;8315;52.104;6.304;2022-08-19T04:57:01;16.70;98.40
16412;DHT22;8315;52.104;6.304;2022-08-19T04:59:34;16.80;98.40
16412;DHT22;8315;52.104;6.304;2022-08-19T05:02:11;16.80;98.40
16412;DHT22;8315;52.104;6.304;2022-08-19T05:04:45;16.70;98.40
16412;DHT22;8315;52.104;6.304;2022-08-19T05:07:19;16.60;98.40
16412;DHT22;8315;52.104;6.304;2022-08-19T05:09:49;16.60;98.40
16412;DHT22;8315;52.104;6.304;2022-08-19T05:12:17;16.60;98.40
16412;DHT22;8315;52.104;6.304;2022-08-19T05:14:45;16.60;98.40
16412;DHT22;8315;52.104;6.304;2022-08-19T05:17:27;16.70;98.40
16412;DHT22;8315;52.104;6.304;2022-08-19T05:19:59;16.70;98.40
16412;DHT22;8315;52.104;6.304;2022-08-19T05:22:46;16.60;98.40
16412;DHT22;8315;52.104;6.304;2022-08-19T05:25:20;16.70;98.40
16412;DHT22;8315;52.104;6.304;2022-08-19T05:27:54;16.70;98.40
16412;DHT22;8315;52.104;6.304;2022-08-19T05:30:48;16.60;98.40
16412;DHT22;8315;52.104;6.304;2022-08-19T05:33:19;16.60;98.40
16412;DHT22;8315;52.104;6.304;2022-08-19T05:35:50;16.70;98.40
16412;DHT22;8315;52.104;6.304;2022-08-19T05:38:23;16.70;98.40
16412;DHT22;8315;52.104;6.304;2022-08-19T05:40:59;16.80;98.40
16412;DHT22;8315;52.104;6.304;2022-08-19T05:43:38;16.80;98.40
16412;DHT22;8315;52.104;6.304;2022-08-19T05:46:16;16.80;98.40
16412;DHT22;8315;52.104;6.304;2022-08-19T05:48:50;16.80;98.40
16412;DHT22;8315;52.104;6.304;2022-08-19T05:51:21;16.90;98.40
16412;DHT22;8315;52.104;6.304;2022-08-19T05:53:53;17.00;98.40
16412;DHT22;8315;52.104;6.304;2022-08-19T05:56:25;17.00;98.40
16412;DHT22;8315;52.104;6.304;2022-08-19T05:58:56;17.10;98.40
16412;DHT22;8315;52.104;6.304;2022-08-19T06:01:29;17.00;98.40
16412;DHT22;8315;52.104;6.304;2022-08-19T06:04:03;17.20;98.40
16412;DHT22;8315;52.104;6.304;2022-08-19T06:06:34;17.40;98.40
16412;DHT22;8315;52.104;6.304;2022-08-19T06:09:02;17.50;98.40
16412;DHT22;8315;52.104;6.304;2022-08-19T06:11:40;17.60;98.40
16412;DHT22;8315;52.104;6.304;2022-08-19T06:14:11;17.70;98.40
16412;DHT22;8315;52.104;6.304;2022-08-19T06:16:43;17.70;98.40
16412;DHT22;8315;52.104;6.304;2022-08-19T06:19:16;17.80;98.40
16412;DHT22;8315;52.104;6.304;2022-08-19T06:21:59;17.80;98.40
16412;DHT22;8315;52.104;6.304;2022-08-19T06:24:31;17.90;98.40
16412;DHT22;8315;52.104;6.304;2022-08-19T06:26:59;18.00;98.40
16412;DHT22;8315;52.104;6.304;2022-08-19T06:29:36;18.00;98.40
16412;DHT22;8315;52.104;6.304;2022-08-19T06:32:18;18.10;98.40
16412;DHT22;8315;52.104;6.304;2022-08-19T06:34:52;18.20;98.40
16412;DHT22;8315;52.104;6.304;2022-08-19T06:37:27;18.20;98.40
16412;DHT22;8315;52.104;6.304;2022-08-19T06:39:58;18.30;98.40
16412;DHT22;8315;52.104;6.304;2022-08-19T06:42:28;18.40;98.40
16412;DHT22;8315;52.104;6.304;2022-08-19T06:45:10;18.60;98.40
16412;DHT22;8315;52.104;6.304;2022-08-19T06:47:43;18.70;98.40
16412;DHT22;8315;52.104;6.304;2022-08-19T06:50:21;18.80;98.40
16412;DHT22;8315;52.104;6.304;2022-08-19T06:52:53;18.90;98.40
16412;DHT22;8315;52.104;6.304;2022-08-19T06:55:33;19.00;98.40
16412;DHT22;8315;52.104;6.304;2022-08-19T06:58:05;19.10;98.40
16412;DHT22;8315;52.104;6.304;2022-08-19T07:00:43;19.20;98.40
16412;DHT22;8315;52.104;6.304;2022-08-19T07:03:14;19.30;98.40
16412;DHT22;8315;52.104;6.304;2022-08-19T07:05:47;19.30;98.40
16412;DHT22;8315;52.104;6.304;2022-08-19T07:08:25;19.40;98.40
16412;DHT22;8315;52.104;6.304;2022-08-19T07:10:54;19.50;98.40
16412;DHT22;8315;52.104;6.304;2022-08-19T07:13:37;19.50;98.40
16412;DHT22;8315;52.104;6.304;2022-08-19T07:16:13;19.60;98.40
16412;DHT22;8315;52.104;6.304;2022-08-19T07:18:45;19.60;98.40
16412;DHT22;8315;52.104;6.304;2022-08-19T07:21:15;19.80;98.40
16412;DHT22;8315;52.104;6.304;2022-08-19T07:23:44;19.90;98.40
16412;DHT22;8315;52.104;6.304;2022-08-19T07:26:12;20.00;98.40
16412;DHT22;8315;52.104;6.304;2022-08-19T07:28:44;20.00;98.40
16412;DHT22;8315;52.104;6.304;2022-08-19T07:31:12;20.10;98.40
16412;DHT22;8315;52.104;6.304;2022-08-19T07:33:40;20.20;98.40
16412;DHT22;8315;52.104;6.304;2022-08-19T07:36:08;20.30;98.40
16412;DHT22;8315;52.104;6.304;2022-08-19T07:38:39;20.30;98.40
16412;DHT22;8315;52.104;6.304;2022-08-19T07:41:09;20.40;98.40
16412;DHT22;8315;52.104;6.304;2022-08-19T07:43:36;20.50;98.40
16412;DHT22;8315;52.104;6.304;2022-08-19T07:46:04;20.50;98.40
16412;DHT22;8315;52.104;6.304;2022-08-19T07:48:32;20.60;98.40
16412;DHT22;8315;52.104;6.304;2022-08-19T07:51:00;20.70;98.40
16412;DHT22;8315;52.104;6.304;2022-08-19T07:53:30;20.80;98.40
16412;DHT22;8315;52.104;6.304;2022-08-19T07:55:59;21.00;98.40
16412;DHT22;8315;52.104;6.304;2022-08-19T07:58:29;21.00;98.40
16412;DHT22;8315;52.104;6.304;2022-08-19T08:00:57;21.10;98.40
16412;DHT22;8315;52.104;6.304;2022-08-19T08:03:25;21.20;98.40
16412;DHT22;8315;52.104;6.304;2022-08-19T08:06:06;21.30;98.40
16412;DHT22;8315;52.104;6.304;2022-08-19T08:08:51;21.40;98.40
16412;DHT22;8315;52.104;6.304;2022-08-19T08:11:37;21.50;98.40
16412;DHT22;8315;52.104;6.304;2022-08-19T08:14:04;21.60;98.40
16412;DHT22;8315;52.104;6.304;2022-08-19T08:16:33;21.70;98.40
16412;DHT22;8315;52.104;6.304;2022-08-19T08:19:00;21.80;98.40
16412;DHT22;8315;52.104;6.304;2022-08-19T08:21:27;22.00;98.40
16412;DHT22;8315;52.104;6.304;2022-08-19T08:23:54;22.00;98.40
16412;DHT22;8315;52.104;6.304;2022-08-19T08:26:21;22.10;98.40
16412;DHT22;8315;52.104;6.304;2022-08-19T08:28:50;22.10;98.40
16412;DHT22;8315;52.104;6.304;2022-08-19T08:31:17;22.10;98.40
16412;DHT22;8315;52.104;6.304;2022-08-19T08:33:44;22.10;98.40
16412;DHT22;8315;52.104;6.304;2022-08-19T08:36:12;22.20;98.40
16412;DHT22;8315;52.104;6.304;2022-08-19T08:38:40;22.20;98.40
16412;DHT22;8315;52.104;6.304;2022-08-19T08:41:09;22.30;98.40
16412;DHT22;8315;52.104;6.304;2022-08-19T08:43:45;22.40;98.40
16412;DHT22;8315;52.104;6.304;2022-08-19T08:46:15;22.50;98.40
16412;DHT22;8315;52.104;6.304;2022-08-19T08:48:49;22.60;98.40
16412;DHT22;8315;52.104;6.304;2022-08-19T08:51:20;22.70;98.40
16412;DHT22;8315;52.104;6.304;2022-08-19T08:53:51;22.70;98.40
16412;DHT22;8315;52.104;6.304;2022-08-19T08:56:19;22.70;98.40
16412;DHT22;8315;52.104;6.304;2022-08-19T08:58:48;22.80;98.40
16412;DHT22;8315;52.104;6.304;2022-08-19T09:01:19;22.70;98.40
16412;DHT22;8315;52.104;6.304;2022-08-19T09:03:46;22.80;98.40
16412;DHT22;8315;52.104;6.304;2022-08-19T09:06:14;22.80;98.40
16412;DHT22;8315;52.104;6.304;2022-08-19T09:08:47;22.90;98.40
16412;DHT22;8315;52.104;6.304;2022-08-19T09:11:19;22.90;98.40
16412;DHT22;8315;52.104;6.304;2022-08-19T09:13:51;23.00;98.40
16412;DHT22;8315;52.104;6.304;2022-08-19T09:16:29;22.90;98.40
16412;DHT22;8315;52.104;6.304;2022-08-19T09:18:57;22.90;98.40
16412;DHT22;8315;52.104;6.304;2022-08-19T09:21:27;23.00;98.40
16412;DHT22;8315;52.104;6.304;2022-08-19T09:23:54;23.10;98.40
16412;DHT22;8315;52.104;6.304;2022-08-19T09:26:21;23.00;98.40
16412;DHT22;8315;52.104;6.304;2022-08-19T09:28:50;23.00;98.40
16412;DHT22;8315;52.104;6.304;2022-08-19T09:31:18;23.00;98.40
16412;DHT22;8315;52.104;6.304;2022-08-19T09:33:48;23.00;98.40
16412;DHT22;8315;52.104;6.304;2022-08-19T09:36:16;23.00;98.40
16412;DHT22;8315;52.104;6.304;2022-08-19T09:38:44;23.20;98.40
16412;DHT22;8315;52.104;6.304;2022-08-19T09:41:13;23.20;98.40
16412;DHT22;8315;52.104;6.304;2022-08-19T09:43:41;23.20;98.40
16412;DHT22;8315;52.104;6.304;2022-08-19T09:46:10;23.20;98.40
16412;DHT22;8315;52.104;6.304;2022-08-19T09:48:38;23.30;98.40
16412;DHT22;8315;52.104;6.304;2022-08-19T09:51:07;23.30;98.40
16412;DHT22;8315;52.104;6.304;2022-08-19T09:53:41;23.20;98.40
16412;DHT22;8315;52.104;6.304;2022-08-19T09:56:09;23.40;98.00
16412;DHT22;8315;52.104;6.304;2022-08-19T09:58:36;23.50;97.60
16412;DHT22;8315;52.104;6.304;2022-08-19T10:01:04;23.60;97.20
16412;DHT22;8315;52.104;6.304;2022-08-19T10:03:33;23.60;97.80
16412;DHT22;8315;52.104;6.304;2022-08-19T10:06:02;23.60;97.50
16412;DHT22;8315;52.104;6.304;2022-08-19T10:08:32;23.70;97.80
16412;DHT22;8315;52.104;6.304;2022-08-19T10:11:01;23.70;97.60
16412;DHT22;8315;52.104;6.304;2022-08-19T10:13:29;23.70;95.10
16412;DHT22;8315;52.104;6.304;2022-08-19T10:16:02;23.80;93.80
16412;DHT22;8315;52.104;6.304;2022-08-19T10:18:30;23.90;92.80
16412;DHT22;8315;52.104;6.304;2022-08-19T10:21:03;23.90;93.20
16412;DHT22;8315;52.104;6.304;2022-08-19T10:23:35;23.90;92.10
16412;DHT22;8315;52.104;6.304;2022-08-19T10:26:03;24.00;93.60
16412;DHT22;8315;52.104;6.304;2022-08-19T10:28:31;24.10;92.20
16412;DHT22;8315;52.104;6.304;2022-08-19T10:31:03;24.20;91.40
16412;DHT22;8315;52.104;6.304;2022-08-19T10:33:31;24.20;89.60
16412;DHT22;8315;52.104;6.304;2022-08-19T10:35:59;24.30;89.10
16412;DHT22;8315;52.104;6.304;2022-08-19T10:38:26;24.30;89.30
16412;DHT22;8315;52.104;6.304;2022-08-19T10:40:56;24.40;89.80
16412;DHT22;8315;52.104;6.304;2022-08-19T10:43:22;24.30;89.90
16412;DHT22;8315;52.104;6.304;2022-08-19T10:45:53;24.30;89.70
16412;DHT22;8315;52.104;6.304;2022-08-19T10:48:21;24.30;89.20
16412;DHT22;8315;52.104;6.304;2022-08-19T10:50:48;24.30;89.70
16412;DHT22;8315;52.104;6.304;2022-08-19T10:53:33;24.30;89.20
16412;DHT22;8315;52.104;6.304;2022-08-19T10:56:01;24.40;88.90
16412;DHT22;8315;52.104;6.304;2022-08-19T10:58:46;24.40;90.80
16412;DHT22;8315;52.104;6.304;2022-08-19T11:01:14;24.50;91.10
16412;DHT22;8315;52.104;6.304;2022-08-19T11:03:41;24.60;89.70
16412;DHT22;8315;52.104;6.304;2022-08-19T11:06:08;24.60;91.10
16412;DHT22;8315;52.104;6.304;2022-08-19T11:08:35;24.50;92.60
16412;DHT22;8315;52.104;6.304;2022-08-19T11:11:05;24.50;93.20
16412;DHT22;8315;52.104;6.304;2022-08-19T11:13:33;24.60;93.10
16412;DHT22;8315;52.104;6.304;2022-08-19T11:16:03;24.60;94.20
16412;DHT22;8315;52.104;6.304;2022-08-19T11:18:33;24.70;95.10
16412;DHT22;8315;52.104;6.304;2022-08-19T11:21:05;24.70;94.60
16412;DHT22;8315;52.104;6.304;2022-08-19T11:23:36;24.70;95.40
16412;DHT22;8315;52.104;6.304;2022-08-19T11:26:03;24.70;94.90
16412;DHT22;8315;52.104;6.304;2022-08-19T11:28:31;24.80;94.90
16412;DHT22;8315;52.104;6.304;2022-08-19T11:30:58;25.00;94.70
16412;DHT22;8315;52.104;6.304;2022-08-19T11:33:25;25.10;94.70
16412;DHT22;8315;52.104;6.304;2022-08-19T11:35:52;25.00;92.90
16412;DHT22;8315;52.104;6.304;2022-08-19T11:38:19;25.00;93.00
16412;DHT22;8315;52.104;6.304;2022-08-19T11:40:53;25.10;92.90
16412;DHT22;8315;52.104;6.304;2022-08-19T11:43:22;25.20;92.70
16412;DHT22;8315;52.104;6.304;2022-08-19T11:45:49;25.10;92.60
16412;DHT22;8315;52.104;6.304;2022-08-19T11:48:16;25.10;91.90
16412;DHT22;8315;52.104;6.304;2022-08-19T11:50:47;25.10;91.70
16412;DHT22;8315;52.104;6.304;2022-08-19T11:53:14;25.00;91.80
16412;DHT22;8315;52.104;6.304;2022-08-19T11:55:41;25.00;91.60
16412;DHT22;8315;52.104;6.304;2022-08-19T11:58:10;25.00;91.20
16412;DHT22;8315;52.104;6.304;2022-08-19T12:00:39;25.10;91.60
16412;DHT22;8315;52.104;6.304;2022-08-19T12:03:06;25.10;91.40
16412;DHT22;8315;52.104;6.304;2022-08-19T12:05:35;25.30;92.60
16412;DHT22;8315;52.104;6.304;2022-08-19T12:08:03;25.40;91.50
16412;DHT22;8315;52.104;6.304;2022-08-19T12:10:30;25.40;91.80
16412;DHT22;8315;52.104;6.304;2022-08-19T12:12:57;25.40;91.80
16412;DHT22;8315;52.104;6.304;2022-08-19T12:15:24;25.50;90.90
16412;DHT22;8315;52.104;6.304;2022-08-19T12:17:56;25.50;91.20
16412;DHT22;8315;52.104;6.304;2022-08-19T12:20:23;25.40;91.30
16412;DHT22;8315;52.104;6.304;2022-08-19T12:22:51;25.30;91.30
16412;DHT22;8315;52.104;6.304;2022-08-19T12:25:18;25.40;91.90
16412;DHT22;8315;52.104;6.304;2022-08-19T12:27:46;25.60;90.90
16412;DHT22;8315;52.104;6.304;2022-08-19T12:30:13;25.70;90.30
16412;DHT22;8315;52.104;6.304;2022-08-19T12:32:40;25.60;91.00
16412;DHT22;8315;52.104;6.304;2022-08-19T12:35:08;25.80;91.50
16412;DHT22;8315;52.104;6.304;2022-08-19T12:37:35;25.80;90.90
16412;DHT22;8315;52.104;6.304;2022-08-19T12:40:03;25.70;91.30
16412;DHT22;8315;52.104;6.304;2022-08-19T12:42:30;25.70;91.70
16412;DHT22;8315;52.104;6.304;2022-08-19T12:44:57;25.90;91.90
16412;DHT22;8315;52.104;6.304;2022-08-19T12:47:24;25.90;91.60
16412;DHT22;8315;52.104;6.304;2022-08-19T12:49:51;26.00;91.30
16412;DHT22;8315;52.104;6.304;2022-08-19T12:52:19;25.90;91.10
16412;DHT22;8315;52.104;6.304;2022-08-19T12:54:47;25.80;91.20
16412;DHT22;8315;52.104;6.304;2022-08-19T12:57:13;26.00;92.20
16412;DHT22;8315;52.104;6.304;2022-08-19T12:59:40;26.10;90.90
16412;DHT22;8315;52.104;6.304;2022-08-19T13:02:08;26.10;90.80
16412;DHT22;8315;52.104;6.304;2022-08-19T13:04:35;26.10;91.40
16412;DHT22;8315;52.104;6.304;2022-08-19T13:07:06;26.30;90.20
16412;DHT22;8315;52.104;6.304;2022-08-19T13:09:34;26.40;90.20
16412;DHT22;8315;52.104;6.304;2022-08-19T13:12:01;26.40;89.70
16412;DHT22;8315;52.104;6.304;2022-08-19T13:14:32;26.50;89.00
16412;DHT22;8315;52.104;6.304;2022-08-19T13:17:00;26.50;89.10
16412;DHT22;8315;52.104;6.304;2022-08-19T13:19:27;26.60;90.30
16412;DHT22;8315;52.104;6.304;2022-08-19T13:21:54;26.70;89.40
16412;DHT22;8315;52.104;6.304;2022-08-19T13:24:21;26.80;89.50
16412;DHT22;8315;52.104;6.304;2022-08-19T13:26:49;26.50;88.70
16412;DHT22;8315;52.104;6.304;2022-08-19T13:29:16;26.50;90.10
16412;DHT22;8315;52.104;6.304;2022-08-19T13:32:00;26.70;88.30
16412;DHT22;8315;52.104;6.304;2022-08-19T13:34:45;26.90;87.90
16412;DHT22;8315;52.104;6.304;2022-08-19T13:37:12;26.80;86.50
16412;DHT22;8315;52.104;6.304;2022-08-19T13:39:39;26.90;86.00
16412;DHT22;8315;52.104;6.304;2022-08-19T13:42:07;27.00;87.30
16412;DHT22;8315;52.104;6.304;2022-08-19T13:44:34;27.10;85.70
16412;DHT22;8315;52.104;6.304;2022-08-19T13:47:01;27.10;85.30
16412;DHT22;8315;52.104;6.304;2022-08-19T13:49:32;27.30;83.50
16412;DHT22;8315;52.104;6.304;2022-08-19T13:52:01;27.50;82.50
16412;DHT22;8315;52.104;6.304;2022-08-19T13:54:28;27.70;82.30
16412;DHT22;8315;52.104;6.304;2022-08-19T13:56:55;27.80;82.10
16412;DHT22;8315;52.104;6.304;2022-08-19T13:59:23;28.00;81.80
16412;DHT22;8315;52.104;6.304;2022-08-19T14:01:50;28.00;81.90
16412;DHT22;8315;52.104;6.304;2022-08-19T14:04:17;28.00;82.80
16412;DHT22;8315;52.104;6.304;2022-08-19T14:06:43;28.10;83.80
16412;DHT22;8315;52.104;6.304;2022-08-19T14:09:10;28.20;82.70
16412;DHT22;8315;52.104;6.304;2022-08-19T14:11:37;28.50;81.70
16412;DHT22;8315;52.104;6.304;2022-08-19T14:14:04;28.60;80.70
16412;DHT22;8315;52.104;6.304;2022-08-19T14:16:32;28.80;79.60
16412;DHT22;8315;52.104;6.304;2022-08-19T14:18:59;28.80;79.80
16412;DHT22;8315;52.104;6.304;2022-08-19T14:21:25;28.90;79.20
16412;DHT22;8315;52.104;6.304;2022-08-19T14:23:52;28.70;79.30
16412;DHT22;8315;52.104;6.304;2022-08-19T14:26:20;28.30;80.90
16412;DHT22;8315;52.104;6.304;2022-08-19T14:28:47;28.30;81.20
16412;DHT22;8315;52.104;6.304;2022-08-19T14:31:15;28.40;81.10
16412;DHT22;8315;52.104;6.304;2022-08-19T14:33:46;28.70;81.10
16412;DHT22;8315;52.104;6.304;2022-08-19T14:36:13;28.80;81.10
16412;DHT22;8315;52.104;6.304;2022-08-19T14:38:40;29.10;78.90
16412;DHT22;8315;52.104;6.304;2022-08-19T14:41:10;28.80;78.80
16412;DHT22;8315;52.104;6.304;2022-08-19T14:43:42;29.00;78.90
16412;DHT22;8315;52.104;6.304;2022-08-19T14:46:11;29.30;77.90
16412;DHT22;8315;52.104;6.304;2022-08-19T14:48:39;29.20;77.90
16412;DHT22;8315;52.104;6.304;2022-08-19T14:51:07;29.00;79.20
16412;DHT22;8315;52.104;6.304;2022-08-19T14:53:34;28.70;80.00
16412;DHT22;8315;52.104;6.304;2022-08-19T14:56:01;28.60;80.30
16412;DHT22;8315;52.104;6.304;2022-08-19T14:58:33;28.70;80.60
16412;DHT22;8315;52.104;6.304;2022-08-19T15:01:00;28.80;81.00
16412;DHT22;8315;52.104;6.304;2022-08-19T15:03:28;29.30;77.60
16412;DHT22;8315;52.104;6.304;2022-08-19T15:05:56;29.20;77.80
16412;DHT22;8315;52.104;6.304;2022-08-19T15:08:25;29.20;78.90
16412;DHT22;8315;52.104;6.304;2022-08-19T15:10:51;29.30;78.90
16412;DHT22;8315;52.104;6.304;2022-08-19T15:13:19;28.90;83.00
16412;DHT22;8315;52.104;6.304;2022-08-19T15:15:46;28.50;86.50
16412;DHT22;8315;52.104;6.304;2022-08-19T15:18:13;27.90;89.50
16412;DHT22;8315;52.104;6.304;2022-08-19T15:20:41;27.60;90.80
16412;DHT22;8315;52.104;6.304;2022-08-19T15:23:08;27.50;91.40
16412;DHT22;8315;52.104;6.304;2022-08-19T15:25:37;27.40;91.70
16412;DHT22;8315;52.104;6.304;2022-08-19T15:28:04;27.50;92.10
16412;DHT22;8315;52.104;6.304;2022-08-19T15:30:31;27.20;92.70
16412;DHT22;8315;52.104;6.304;2022-08-19T15:32:58;26.90;93.50
16412;DHT22;8315;52.104;6.304;2022-08-19T15:35:25;26.50;94.50
16412;DHT22;8315;52.104;6.304;2022-08-19T15:37:52;26.20;95.80
16412;DHT22;8315;52.104;6.304;2022-08-19T15:40:21;26.20;96.10
16412;DHT22;8315;52.104;6.304;2022-08-19T15:42:50;26.10;95.90
16412;DHT22;8315;52.104;6.304;2022-08-19T15:45:19;26.00;96.50
16412;DHT22;8315;52.104;6.304;2022-08-19T15:47:47;25.70;97.10
16412;DHT22;8315;52.104;6.304;2022-08-19T15:50:15;25.70;97.70
16412;DHT22;8315;52.104;6.304;2022-08-19T15:52:46;25.70;97.60
16412;DHT22;8315;52.104;6.304;2022-08-19T15:55:14;25.60;97.90
16412;DHT22;8315;52.104;6.304;2022-08-19T15:57:41;25.50;98.30
16412;DHT22;8315;52.104;6.304;2022-08-19T16:00:27;25.30;98.40
16412;DHT22;8315;52.104;6.304;2022-08-19T16:03:12;25.10;98.40
16412;DHT22;8315;52.104;6.304;2022-08-19T16:06:09;24.80;98.40
16412;DHT22;8315;52.104;6.304;2022-08-19T16:08:51;24.70;98.40
16412;DHT22;8315;52.104;6.304;2022-08-19T16:11:19;24.60;98.40
16412;DHT22;8315;52.104;6.304;2022-08-19T16:13:47;24.60;98.40
16412;DHT22;8315;52.104;6.304;2022-08-19T16:16:17;24.60;98.40